Time;durP1;ratioP1;P1;durP2;ratioP2;P2;SDS_P1;SDS_P2;PMS_P1;PMS_P2;Temp;Humidity;BMP_temperature;BMP_pressure;BME280_temperature;BME280_humidity;BME280_pressure;Samples;Min_cycle;Max_cycle;Signal;HPM_P1;HPM_P2
2022/03/03 00:00:10;;;;;;;38.67;19.05;;;-3.70;99.90;;;;;;5001614;28;20041;-57
2022/03/03 00:02:36;;;;;;;31.08;18.55;;;-3.60;99.90;;;;;;4999024;28;20026;-57
2022/03/03 00:05:02;;;;;;;34.05;19.20;;;-3.60;99.90;;;;;;4994434;28;20840;-56
2022/03/03 00:07:28;;;;;;;29.65;17.45;;;-3.60;99.90;;;;;;4999715;28;20113;-55
2022/03/03 00:09:54;;;;;;;31.77;16.58;;;-3.60;99.90;;;;;;4998159;28;20117;-57
2022/03/03 00:12:19;;;;;;;32.47;16.80;;;-3.60;99.90;;;;;;5003325;28;20037;-57
2022/03/03 00:14:45;;;;;;;25.73;15.13;;;-3.60;99.90;;;;;;4995959;28;20089;-56
2022/03/03 00:17:11;;;;;;;28.17;18.40;;;-3.60;99.90;;;;;;4996148;28;20037;-57
2022/03/03 00:19:37;;;;;;;30.83;18.02;;;-3.70;99.90;;;;;;4997227;28;20026;-56
2022/03/03 00:22:03;;;;;;;41.45;22.95;;;-3.80;99.90;;;;;;4999388;28;20505;-55
2022/03/03 00:24:29;;;;;;;37.25;18.88;;;-3.80;99.90;;;;;;5003457;28;20061;-56
2022/03/03 00:26:55;;;;;;;30.45;19.23;;;-3.90;99.90;;;;;;5002184;28;20054;-56
2022/03/03 00:29:20;;;;;;;29.02;17.98;;;-4.00;99.90;;;;;;5001582;28;20037;-55
2022/03/03 00:31:46;;;;;;;30.90;17.65;;;-4.10;99.90;;;;;;4998710;28;20017;-56
2022/03/03 00:34:12;;;;;;;36.45;18.25;;;-4.20;99.90;;;;;;4999525;28;20031;-55
2022/03/03 00:36:37;;;;;;;38.08;18.00;;;-4.20;99.90;;;;;;4995028;28;20023;-55
2022/03/03 00:39:04;;;;;;;33.20;17.75;;;-4.30;99.90;;;;;;4998170;28;20117;-57
2022/03/03 00:41:29;;;;;;;30.45;17.63;;;-4.30;99.90;;;;;;4998847;28;20077;-55
2022/03/03 00:43:56;;;;;;;33.97;18.08;;;-4.30;99.90;;;;;;4997902;28;20030;-55
2022/03/03 00:46:21;;;;;;;28.88;18.05;;;-4.30;99.90;;;;;;5005420;28;20041;-56
2022/03/03 00:48:47;;;;;;;36.65;18.65;;;-4.30;99.90;;;;;;5004379;28;20056;-55
2022/03/03 00:51:13;;;;;;;36.30;19.77;;;-4.40;99.90;;;;;;5004034;28;20038;-56
2022/03/03 00:53:39;;;;;;;32.58;19.02;;;-4.30;99.90;;;;;;4999968;28;20128;-56
2022/03/03 00:56:05;;;;;;;37.65;20.10;;;-4.30;99.90;;;;;;5000030;28;20029;-56
2022/03/03 00:58:30;;;;;;;35.17;19.67;;;-4.30;99.90;;;;;;5003124;28;20048;-55
2022/03/03 01:00:56;;;;;;;37.78;20.55;;;-4.30;99.90;;;;;;5002173;28;20057;-56
2022/03/03 01:03:22;;;;;;;32.17;17.95;;;-4.30;99.90;;;;;;5003567;28;20036;-54
2022/03/03 01:05:47;;;;;;;37.03;19.55;;;-4.30;99.90;;;;;;5004970;28;20034;-56
2022/03/03 01:08:13;;;;;;;37.30;18.30;;;-4.20;99.90;;;;;;5003972;28;20045;-55
2022/03/03 01:10:40;;;;;;;35.25;18.55;;;-4.20;99.90;;;;;;4997890;28;20031;-56
2022/03/03 01:13:06;;;;;;;31.10;19.35;;;-4.20;99.90;;;;;;5001215;28;20486;-54
2022/03/03 01:15:32;;;;;;;31.63;18.63;;;-4.20;99.90;;;;;;5003773;28;20034;-53
2022/03/03 01:17:58;;;;;;;30.88;17.52;;;-4.30;99.90;;;;;;5000453;28;20041;-53
2022/03/03 01:20:24;;;;;;;50.45;25.67;;;-4.30;99.90;;;;;;5001297;28;20022;-53
2022/03/03 01:22:50;;;;;;;39.33;21.33;;;-4.30;99.90;;;;;;5005462;28;20105;-54
2022/03/03 01:25:15;;;;;;;63.80;33.53;;;-4.30;99.90;;;;;;5001203;28;20037;-55
2022/03/03 01:27:41;;;;;;;35.58;19.92;;;-4.30;99.90;;;;;;5003830;28;20037;-55
2022/03/03 01:30:08;;;;;;;32.55;19.23;;;-4.40;99.90;;;;;;5007809;28;20030;-54
2022/03/03 01:32:34;;;;;;;32.92;17.75;;;-4.30;99.90;;;;;;5002342;28;20026;-55
2022/03/03 01:35:00;;;;;;;32.33;17.95;;;-4.30;99.90;;;;;;5003757;28;20030;-56
2022/03/03 01:37:26;;;;;;;34.17;18.30;;;-4.30;99.90;;;;;;5001004;28;20034;-55
2022/03/03 01:39:52;;;;;;;29.65;18.23;;;-4.40;99.90;;;;;;5002140;28;20031;-54
2022/03/03 01:42:19;;;;;;;31.70;16.88;;;-4.40;99.90;;;;;;4999647;28;20029;-54
2022/03/03 01:44:46;;;;;;;35.78;18.83;;;-4.50;99.90;;;;;;4999619;28;20076;-54
2022/03/03 01:47:17;;;;;;;35.00;19.20;;;-4.60;99.90;;;;;;5005805;28;20103;-55
2022/03/03 01:49:43;;;;;;;33.47;17.90;;;-4.70;99.90;;;;;;5000319;28;20084;-54
2022/03/03 01:52:09;;;;;;;35.25;18.50;;;-4.80;99.90;;;;;;5003434;28;20537;-55
2022/03/03 01:54:34;;;;;;;41.13;20.83;;;-4.80;99.90;;;;;;5003918;28;20042;-54
2022/03/03 01:57:00;;;;;;;31.27;18.48;;;-4.90;99.90;;;;;;5002078;28;20161;-54
2022/03/03 01:59:26;;;;;;;32.25;18.45;;;-4.90;99.90;;;;;;4999679;28;20050;-54
2022/03/03 02:01:52;;;;;;;34.00;19.23;;;-4.90;99.90;;;;;;5004520;28;20022;-54
2022/03/03 02:04:17;;;;;;;60.03;35.20;;;-5.00;99.90;;;;;;5002481;28;20041;-55
2022/03/03 02:06:43;;;;;;;44.92;25.13;;;-5.00;99.90;;;;;;5002467;28;20558;-54
2022/03/03 02:09:09;;;;;;;41.45;19.85;;;-5.00;99.90;;;;;;5002048;28;20037;-55
2022/03/03 02:11:35;;;;;;;37.97;19.20;;;-5.00;99.90;;;;;;4996711;28;20045;-54
2022/03/03 02:14:04;;;;;;;43.28;21.05;;;-5.00;99.90;;;;;;5004507;28;20099;-55
2022/03/03 02:16:30;;;;;;;141.65;65.18;;;-5.00;99.90;;;;;;4999595;28;20030;-54
2022/03/03 02:18:56;;;;;;;102.85;45.28;;;-5.00;99.90;;;;;;5003371;28;20044;-55
2022/03/03 02:21:22;;;;;;;44.47;21.70;;;-5.00;99.90;;;;;;4999593;28;20693;-56
2022/03/03 02:23:48;;;;;;;51.55;24.70;;;-5.00;99.90;;;;;;5003077;28;20432;-54
2022/03/03 02:26:22;;;;;;;62.30;32.97;;;-5.00;99.90;;;;;;5003436;28;20088;-53
2022/03/03 02:28:50;;;;;;;36.67;19.48;;;-5.00;99.90;;;;;;5000122;28;20042;-54
2022/03/03 02:31:16;;;;;;;38.75;20.23;;;-5.00;99.90;;;;;;4999394;28;20109;-55
2022/03/03 02:33:42;;;;;;;30.63;18.73;;;-5.00;99.90;;;;;;5005461;28;20022;-55
2022/03/03 02:36:20;;;;;;;29.58;17.48;;;-5.00;99.90;;;;;;5002064;28;20033;-55
2022/03/03 02:38:47;;;;;;;31.30;18.40;;;-5.00;99.90;;;;;;4997422;28;20031;-54
2022/03/03 02:41:13;;;;;;;37.47;17.95;;;-5.10;99.90;;;;;;5000804;28;20512;-54
2022/03/03 02:43:38;;;;;;;38.30;18.02;;;-5.20;99.90;;;;;;4994990;28;20054;-55
2022/03/03 02:46:05;;;;;;;31.77;16.80;;;-5.20;99.90;;;;;;4997697;28;20037;-54
2022/03/03 02:48:31;;;;;;;25.52;17.92;;;-5.30;99.90;;;;;;5000879;28;20045;-54
2022/03/03 02:50:57;;;;;;;30.65;18.23;;;-5.40;99.90;;;;;;5000950;28;20030;-55
2022/03/03 02:53:23;;;;;;;30.90;17.77;;;-5.40;99.90;;;;;;5001593;28;20041;-54
2022/03/03 02:55:48;;;;;;;37.75;19.05;;;-5.40;99.90;;;;;;5000334;28;20030;-55
2022/03/03 02:58:14;;;;;;;36.42;19.05;;;-5.40;99.90;;;;;;5000114;28;20037;-55
2022/03/03 03:00:43;;;;;;;34.90;18.63;;;-5.50;99.90;;;;;;4998757;28;20435;-54
2022/03/03 03:03:09;;;;;;;33.22;19.58;;;-5.50;99.90;;;;;;5000956;28;20034;-55
2022/03/03 03:05:36;;;;;;;36.05;19.10;;;-5.50;99.90;;;;;;5000131;28;20493;-55
2022/03/03 03:08:02;;;;;;;37.95;20.25;;;-5.60;99.90;;;;;;5002352;28;21133;-55
2022/03/03 03:10:28;;;;;;;40.00;20.65;;;-5.60;99.90;;;;;;4995411;28;20382;-55
2022/03/03 03:12:53;;;;;;;44.92;21.10;;;-5.60;99.90;;;;;;5001685;28;20029;-54
2022/03/03 03:15:19;;;;;;;56.55;25.05;;;-5.60;99.90;;;;;;4997647;28;20042;-54
2022/03/03 03:17:45;;;;;;;42.03;22.20;;;-5.50;99.90;;;;;;4993455;28;20386;-54
2022/03/03 03:20:11;;;;;;;37.33;20.15;;;-5.50;99.90;;;;;;4997183;28;20035;-53
2022/03/03 03:22:37;;;;;;;42.10;20.17;;;-5.60;99.90;;;;;;4995069;28;20033;-53
2022/03/03 03:25:10;;;;;;;46.65;21.42;;;-5.60;99.90;;;;;;4999290;28;20025;-53
2022/03/03 03:27:40;;;;;;;47.28;23.25;;;-5.60;99.90;;;;;;5001680;28;20037;-54
2022/03/03 03:30:09;;;;;;;36.40;21.27;;;-5.50;99.90;;;;;;5001314;28;20501;-56
2022/03/03 03:32:35;;;;;;;42.80;22.52;;;-5.50;99.90;;;;;;5002904;28;20508;-54
2022/03/03 03:35:01;;;;;;;39.63;20.90;;;-5.50;99.90;;;;;;4995940;28;20547;-54
2022/03/03 03:37:26;;;;;;;41.03;20.25;;;-5.50;99.90;;;;;;5001824;28;20037;-55
2022/03/03 03:39:52;;;;;;;46.88;21.40;;;-5.60;99.90;;;;;;5002625;28;20394;-54
2022/03/03 03:42:18;;;;;;;44.88;22.50;;;-5.60;99.90;;;;;;4995290;28;20026;-53
2022/03/03 03:44:43;;;;;;;41.53;21.05;;;-5.60;99.90;;;;;;4998953;28;20490;-55
2022/03/03 03:47:10;;;;;;;63.05;28.13;;;-5.60;99.90;;;;;;5000317;28;20635;-55
2022/03/03 03:49:36;;;;;;;51.92;25.70;;;-5.60;99.90;;;;;;4995435;28;20096;-55
2022/03/03 03:52:02;;;;;;;52.08;24.17;;;-5.60;99.90;;;;;;4999204;28;20493;-54
2022/03/03 03:54:28;;;;;;;37.55;18.45;;;-5.60;99.90;;;;;;5002001;28;20176;-54
2022/03/03 03:56:54;;;;;;;42.33;18.30;;;-5.60;99.90;;;;;;4998706;28;20535;-53
2022/03/03 03:59:19;;;;;;;31.85;19.15;;;-5.60;99.90;;;;;;4998539;28;20091;-54
2022/03/03 04:01:45;;;;;;;55.85;25.27;;;-5.60;99.90;;;;;;5001403;28;20374;-55
2022/03/03 04:04:11;;;;;;;46.92;23.05;;;-5.60;99.90;;;;;;4998847;28;20026;-55
2022/03/03 04:06:37;;;;;;;32.65;17.52;;;-5.60;99.90;;;;;;5000456;28;20101;-54
2022/03/03 04:09:04;;;;;;;35.47;17.52;;;-5.60;99.90;;;;;;5004221;28;20410;-53
2022/03/03 04:11:30;;;;;;;39.38;19.08;;;-5.60;99.90;;;;;;4999500;28;20018;-53
2022/03/03 04:13:58;;;;;;;37.30;18.05;;;-5.60;99.90;;;;;;4998315;28;20036;-54
2022/03/03 04:16:25;;;;;;;38.95;18.70;;;-5.70;99.90;;;;;;5004555;28;20057;-54
2022/03/03 04:18:51;;;;;;;37.25;20.48;;;-5.70;99.90;;;;;;5000604;28;20036;-53
2022/03/03 04:21:17;;;;;;;42.63;21.10;;;-5.70;99.90;;;;;;5001098;28;20452;-54
2022/03/03 04:23:43;;;;;;;40.17;19.48;;;-5.80;99.90;;;;;;4994335;28;20044;-54
2022/03/03 04:26:09;;;;;;;43.83;20.17;;;-5.80;99.90;;;;;;5000239;28;20363;-54
2022/03/03 04:28:35;;;;;;;36.80;20.13;;;-5.80;99.90;;;;;;5004969;28;20109;-53
2022/03/03 04:31:00;;;;;;;38.35;18.67;;;-5.80;99.90;;;;;;5000630;28;20065;-54
2022/03/03 04:33:26;;;;;;;26.20;15.40;;;-5.80;99.90;;;;;;5000213;28;20046;-54
2022/03/03 04:35:52;;;;;;;28.30;15.45;;;-5.80;99.90;;;;;;5002947;28;20486;-53
2022/03/03 04:38:17;;;;;;;27.20;15.32;;;-5.90;99.90;;;;;;5000907;28;20034;-53
2022/03/03 04:40:43;;;;;;;23.27;15.77;;;-6.00;99.90;;;;;;4998886;28;20037;-55
2022/03/03 04:43:09;;;;;;;31.27;17.10;;;-6.00;99.90;;;;;;5000228;28;20042;-54
2022/03/03 04:45:34;;;;;;;25.30;16.65;;;-6.10;99.90;;;;;;4998990;28;20022;-56
2022/03/03 04:48:00;;;;;;;52.60;19.67;;;-6.10;99.90;;;;;;5000501;28;20038;-55
2022/03/03 04:50:26;;;;;;;40.50;19.20;;;-6.10;99.90;;;;;;4997710;28;20026;-56
2022/03/03 04:52:53;;;;;;;33.95;19.48;;;-6.00;99.90;;;;;;4997933;28;20500;-56
2022/03/03 04:55:18;;;;;;;36.78;17.27;;;-6.00;99.90;;;;;;5001436;28;20041;-56
2022/03/03 04:57:44;;;;;;;31.70;17.33;;;-6.00;99.90;;;;;;5002896;28;20027;-55
2022/03/03 05:00:10;;;;;;;46.67;20.75;;;-6.00;99.90;;;;;;4999795;28;20034;-54
2022/03/03 05:02:36;;;;;;;36.65;19.20;;;-6.00;99.90;;;;;;4994811;28;20022;-56
2022/03/03 05:05:02;;;;;;;36.85;19.02;;;-6.00;99.90;;;;;;5000016;28;20041;-56
2022/03/03 05:07:28;;;;;;;36.00;18.38;;;-6.10;99.90;;;;;;5000014;28;20034;-54
2022/03/03 05:09:53;;;;;;;39.72;19.40;;;-6.10;99.90;;;;;;4998301;28;20041;-55
2022/03/03 05:12:19;;;;;;;38.63;19.45;;;-6.10;99.90;;;;;;4997176;28;20506;-56
2022/03/03 05:14:45;;;;;;;41.30;18.60;;;-6.10;99.90;;;;;;5003379;28;20138;-54
2022/03/03 05:17:11;;;;;;;42.15;19.58;;;-6.10;99.90;;;;;;4998208;28;20022;-54
2022/03/03 05:19:36;;;;;;;38.22;17.70;;;-6.10;99.90;;;;;;5000852;28;20037;-54
2022/03/03 05:22:02;;;;;;;40.40;19.23;;;-6.10;99.90;;;;;;4997767;28;20030;-55
2022/03/03 05:24:28;;;;;;;42.22;20.55;;;-6.10;99.90;;;;;;4998814;28;20026;-54
2022/03/03 05:26:53;;;;;;;44.80;20.67;;;-6.10;99.90;;;;;;5000273;28;20449;-55
2022/03/03 05:29:19;;;;;;;30.90;18.05;;;-6.10;99.90;;;;;;4999484;28;20045;-54
2022/03/03 05:31:44;;;;;;;39.58;20.42;;;-6.10;99.90;;;;;;5001170;28;20077;-53
2022/03/03 05:34:10;;;;;;;30.90;17.65;;;-6.20;99.90;;;;;;4998290;28;20049;-54
2022/03/03 05:36:39;;;;;;;33.90;17.63;;;-6.20;99.90;;;;;;5003650;28;20030;-55
2022/03/03 05:39:06;;;;;;;39.45;18.38;;;-6.20;99.90;;;;;;5008151;28;20037;-55
2022/03/03 05:41:31;;;;;;;33.42;17.23;;;-6.20;99.90;;;;;;5002277;28;20037;-55
2022/03/03 05:44:00;;;;;;;35.55;17.35;;;-6.30;99.90;;;;;;5002263;28;20030;-53
2022/03/03 05:46:27;;;;;;;34.35;18.33;;;-6.30;99.90;;;;;;5000200;28;20087;-54
2022/03/03 05:48:53;;;;;;;37.72;18.15;;;-6.30;99.90;;;;;;4998555;28;20035;-53
2022/03/03 05:51:19;;;;;;;40.95;19.25;;;-6.30;99.90;;;;;;4996536;28;20033;-53
2022/03/03 05:53:45;;;;;;;40.53;19.55;;;-6.20;99.90;;;;;;5006846;28;20033;-55
2022/03/03 05:56:14;;;;;;;33.35;19.17;;;-6.20;99.90;;;;;;5001359;28;20414;-54
2022/03/03 05:58:49;;;;;;;40.22;19.48;;;-6.10;99.90;;;;;;5000842;28;20050;-54
2022/03/03 06:01:16;;;;;;;39.55;18.90;;;-6.10;99.90;;;;;;5003723;28;20069;-54
2022/03/03 06:03:50;;;;;;;40.05;20.65;;;-6.00;99.90;;;;;;5004504;28;20022;-55
2022/03/03 06:06:22;;;;;;;37.40;19.63;;;-6.00;99.90;;;;;;5000342;28;20038;-54
2022/03/03 06:09:14;;;;;;;40.00;19.55;;;-5.90;99.90;;;;;;4996745;28;20037;-53
2022/03/03 06:11:47;;;;;;;42.13;19.80;;;-5.90;99.90;;;;;;5001886;28;20112;-53
2022/03/03 06:14:23;;;;;;;41.15;20.45;;;-5.90;99.90;;;;;;4999498;28;20689;-54
2022/03/03 06:16:49;;;;;;;34.35;18.83;;;-5.80;99.90;;;;;;5002931;28;20042;-55
2022/03/03 06:19:18;;;;;;;42.20;19.63;;;-5.80;99.90;;;;;;5004456;28;20027;-54
2022/03/03 06:21:44;;;;;;;49.80;21.50;;;-5.70;99.90;;;;;;5002830;28;20030;-54
2022/03/03 06:24:10;;;;;;;44.40;21.40;;;-5.60;99.90;;;;;;4998630;28;20433;-54
2022/03/03 06:26:36;;;;;;;36.90;20.23;;;-5.30;99.90;;;;;;5000080;28;20030;-53
2022/03/03 06:29:03;;;;;;;32.88;18.48;;;-4.30;99.90;;;;;;4994791;28;20034;-55
2022/03/03 06:31:28;;;;;;;41.00;16.60;;;-2.90;99.90;;;;;;4998680;28;20030;-54
2022/03/03 06:33:54;;;;;;;24.30;15.20;;;-1.30;99.90;;;;;;5002421;28;20512;-55
2022/03/03 06:36:20;;;;;;;17.80;12.00;;;0.30;99.90;;;;;;5005841;28;20046;-55
2022/03/03 06:38:45;;;;;;;17.95;12.95;;;1.60;99.90;;;;;;5000623;28;20045;-55
2022/03/03 06:41:11;;;;;;;15.13;12.02;;;2.80;99.90;;;;;;4995914;28;20085;-54
2022/03/03 06:43:37;;;;;;;13.75;12.13;;;3.80;99.90;;;;;;5007449;28;20576;-56
2022/03/03 06:46:04;;;;;;;15.20;12.02;;;4.80;99.90;;;;;;5003854;28;20060;-55
2022/03/03 06:48:30;;;;;;;13.95;11.65;;;5.60;99.90;;;;;;4997955;28;20034;-56
2022/03/03 06:50:57;;;;;;;14.18;11.70;;;6.70;99.90;;;;;;4997953;28;20085;-55
2022/03/03 06:53:31;;;;;;;12.43;11.13;;;7.10;92.20;;;;;;5000330;28;20139;-57
2022/03/03 06:56:07;;;;;;;12.05;10.85;;;7.70;77.20;;;;;;4999626;28;20066;-56
2022/03/03 06:58:34;;;;;;;11.45;10.35;;;7.90;68.80;;;;;;4999645;28;20022;-56
2022/03/03 07:01:12;;;;;;;13.73;10.88;;;8.50;67.30;;;;;;4996511;28;20065;-55
2022/03/03 07:03:40;;;;;;;13.00;11.60;;;9.00;63.10;;;;;;4997695;28;20038;-55
2022/03/03 07:06:06;;;;;;;16.77;11.82;;;8.80;61.30;;;;;;4999786;28;20030;-55
2022/03/03 07:08:33;;;;;;;14.30;11.48;;;8.40;62.80;;;;;;5001156;28;20109;-57
2022/03/03 07:10:59;;;;;;;13.85;12.32;;;8.00;63.20;;;;;;5003490;28;20387;-56
2022/03/03 07:13:25;;;;;;;15.82;11.45;;;8.30;68.10;;;;;;4994382;28;20085;-56
2022/03/03 07:15:55;;;;;;;12.10;11.00;;;9.10;62.50;;;;;;4995971;28;20034;-57
2022/03/03 07:18:33;;;;;;;13.18;11.63;;;10.30;62.70;;;;;;4997108;28;20112;-57
2022/03/03 07:21:24;;;;;;;13.07;11.77;;;10.60;56.30;;;;;;4998453;28;20037;-58
2022/03/03 07:24:12;;;;;;;17.10;13.50;;;11.50;55.80;;;;;;5004517;28;20677;-58
2022/03/03 07:26:41;;;;;;;14.32;12.23;;;12.10;54.00;;;;;;4996979;28;20514;-57
2022/03/03 07:29:12;;;;;;;14.48;13.18;;;12.60;54.00;;;;;;4995285;28;20057;-58
2022/03/03 07:31:45;;;;;;;13.57;12.27;;;13.00;50.70;;;;;;4996986;28;20038;-59
2022/03/03 07:34:12;;;;;;;14.10;12.20;;;13.70;49.90;;;;;;4994711;28;20037;-56
2022/03/03 07:36:40;;;;;;;16.08;13.50;;;14.10;49.20;;;;;;4998774;28;20497;-56
2022/03/03 07:39:11;;;;;;;13.75;12.40;;;14.20;49.20;;;;;;5001508;28;20034;-55
2022/03/03 07:41:36;;;;;;;14.27;12.88;;;14.40;48.00;;;;;;4997097;28;20022;-54
2022/03/03 07:44:03;;;;;;;13.95;12.48;;;14.60;47.60;;;;;;4998049;28;20030;-54
2022/03/03 07:46:29;;;;;;;13.57;12.20;;;15.10;47.40;;;;;;4998492;28;20034;-54
2022/03/03 07:48:55;;;;;;;13.85;12.52;;;15.70;46.50;;;;;;5002861;28;20068;-55
2022/03/03 07:51:22;;;;;;;12.55;11.45;;;15.20;44.20;;;;;;5001087;28;20034;-54
2022/03/03 07:53:48;;;;;;;12.90;11.68;;;15.30;45.20;;;;;;4996840;28;20129;-54
2022/03/03 07:56:25;;;;;;;12.85;11.70;;;15.50;45.00;;;;;;4997990;28;20482;-55
2022/03/03 07:58:58;;;;;;;12.55;11.50;;;15.60;45.50;;;;;;4997832;28;20036;-55
2022/03/03 08:01:24;;;;;;;14.43;13.05;;;15.70;44.10;;;;;;5000499;28;20040;-54
2022/03/03 08:03:51;;;;;;;13.57;12.20;;;15.70;44.40;;;;;;5000213;28;20030;-54
2022/03/03 08:06:17;;;;;;;15.30;13.85;;;15.70;44.30;;;;;;4993705;28;20627;-55
2022/03/03 08:08:44;;;;;;;12.52;11.43;;;16.50;43.30;;;;;;4994359;28;21016;-55
2022/03/03 08:11:10;;;;;;;13.43;11.70;;;16.50;42.80;;;;;;5001157;28;20036;-54
2022/03/03 08:13:36;;;;;;;17.10;13.15;;;16.10;44.40;;;;;;4998019;28;20034;-54
2022/03/03 08:16:03;;;;;;;14.02;12.82;;;15.60;44.80;;;;;;4999569;28;20034;-56
2022/03/03 08:18:35;;;;;;;13.73;12.50;;;16.10;44.60;;;;;;4993719;28;20113;-55
2022/03/03 08:21:05;;;;;;;14.95;13.57;;;16.20;42.80;;;;;;4994470;28;20085;-53
2022/03/03 08:23:32;;;;;;;14.75;13.25;;;15.40;43.50;;;;;;4993026;28;20025;-57
2022/03/03 08:26:02;;;;;;;14.52;13.23;;;14.90;45.10;;;;;;4998305;28;20129;-57
2022/03/03 08:28:29;;;;;;;14.57;13.18;;;15.00;45.00;;;;;;4999295;28;20034;-58
2022/03/03 08:31:08;;;;;;;14.98;13.68;;;15.40;44.50;;;;;;4998029;28;20030;-59
2022/03/03 08:33:54;;;;;;;16.70;14.93;;;15.60;43.40;;;;;;4994803;28;20092;-60
2022/03/03 08:36:37;;;;;;;13.80;12.60;;;15.60;43.20;;;;;;4997698;28;21656;-55
2022/03/03 08:39:06;;;;;;;13.30;12.10;;;16.70;42.40;;;;;;4994711;28;20034;-56
2022/03/03 08:41:36;;;;;;;15.82;12.18;;;16.90;41.00;;;;;;4998726;28;20018;-55
2022/03/03 08:44:04;;;;;;;14.23;12.88;;;17.20;41.20;;;;;;5002374;28;20109;-59
2022/03/03 08:46:32;;;;;;;15.45;13.95;;;17.10;41.00;;;;;;5001057;28;20041;-61
2022/03/03 08:49:01;;;;;;;15.23;13.90;;;16.80;41.70;;;;;;4997779;28;20034;-59
2022/03/03 08:51:28;;;;;;;18.83;14.13;;;17.10;41.20;;;;;;4996775;28;20430;-60
2022/03/03 08:53:54;;;;;;;16.70;13.75;;;17.30;40.80;;;;;;4996178;28;20049;-60
2022/03/03 08:56:20;;;;;;;17.83;15.85;;;17.50;41.30;;;;;;4998070;28;20043;-60
2022/03/03 08:58:46;;;;;;;23.65;17.23;;;17.30;41.20;;;;;;4994627;28;20109;-61
2022/03/03 09:01:11;;;;;;;15.20;13.68;;;17.40;41.00;;;;;;4994305;28;20034;-60
2022/03/03 09:03:38;;;;;;;18.85;13.27;;;17.50;40.50;;;;;;5002495;28;20632;-59
2022/03/03 09:06:03;;;;;;;14.63;12.02;;;17.50;40.40;;;;;;5004750;28;20037;-58
2022/03/03 09:08:29;;;;;;;12.90;11.70;;;17.60;41.00;;;;;;5006610;28;20022;-61
2022/03/03 09:10:55;;;;;;;14.25;11.52;;;17.70;39.70;;;;;;5000811;28;20026;-58
2022/03/03 09:13:20;;;;;;;12.70;11.60;;;18.10;38.30;;;;;;4999035;28;20069;-62
2022/03/03 09:15:46;;;;;;;11.73;10.63;;;18.10;38.50;;;;;;5003274;28;20027;-58
2022/03/03 09:18:12;;;;;;;12.63;11.50;;;18.80;36.90;;;;;;5009571;28;20026;-60
2022/03/03 09:20:40;;;;;;;11.88;10.77;;;18.30;37.40;;;;;;5002803;28;20026;-57
2022/03/03 09:23:06;;;;;;;13.57;12.25;;;19.00;36.10;;;;;;5001588;28;20078;-57
2022/03/03 09:25:36;;;;;;;13.57;12.18;;;18.70;37.00;;;;;;5001013;28;20038;-57
2022/03/03 09:28:01;;;;;;;12.32;11.23;;;19.00;37.00;;;;;;5002906;28;20067;-58
2022/03/03 09:30:28;;;;;;;12.10;10.93;;;19.90;35.60;;;;;;4999117;28;20065;-58
2022/03/03 09:32:53;;;;;;;13.20;9.60;;;20.20;36.30;;;;;;5003671;28;20042;-57
2022/03/03 09:35:19;;;;;;;11.77;10.60;;;20.80;35.00;;;;;;5004089;28;20041;-58
2022/03/03 09:37:45;;;;;;;12.40;11.20;;;20.70;33.10;;;;;;5001445;28;20022;-59
2022/03/03 09:40:11;;;;;;;13.57;12.20;;;20.50;35.80;;;;;;5006247;28;20030;-56
2022/03/03 09:42:37;;;;;;;12.20;11.10;;;20.50;36.90;;;;;;5001500;28;20022;-57
2022/03/03 09:45:09;;;;;;;14.85;13.35;;;20.70;36.40;;;;;;5001152;28;20427;-56
2022/03/03 09:47:36;;;;;;;15.32;13.30;;;20.90;35.70;;;;;;5005290;28;20030;-55
2022/03/03 09:50:02;;;;;;;13.75;12.35;;;20.40;35.60;;;;;;5005880;28;20018;-64
2022/03/03 09:52:30;;;;;;;13.43;12.15;;;20.20;35.00;;;;;;5001888;28;20038;-58
2022/03/03 09:54:57;;;;;;;14.23;12.85;;;20.00;36.10;;;;;;5001259;28;20035;-56
2022/03/03 09:57:24;;;;;;;13.50;12.20;;;20.30;35.30;;;;;;4996026;28;20161;-57
2022/03/03 09:59:52;;;;;;;15.10;13.60;;;20.40;35.70;;;;;;5003287;28;20107;-59
2022/03/03 10:02:18;;;;;;;14.82;12.85;;;20.00;35.30;;;;;;5002598;28;20034;-56
2022/03/03 10:04:44;;;;;;;17.77;15.80;;;19.50;35.70;;;;;;5004044;28;20099;-58
2022/03/03 10:07:10;;;;;;;14.30;13.10;;;19.40;36.20;;;;;;5003138;28;20456;-56
2022/03/03 10:09:59;;;;;;;14.77;13.38;;;19.60;35.40;;;;;;5002951;28;20026;-61
2022/03/03 10:12:26;;;;;;;14.30;13.02;;;19.90;35.30;;;;;;5003852;28;20643;-56
2022/03/03 10:14:57;;;;;;;13.65;12.43;;;20.40;35.30;;;;;;4998366;28;20038;-56
2022/03/03 10:17:35;;;;;;;13.90;12.55;;;20.70;35.20;;;;;;4995026;28;20018;-57
2022/03/03 10:20:02;;;;;;;15.50;14.07;;;21.00;34.70;;;;;;5003198;28;20021;-62
2022/03/03 10:22:57;;;;;;;14.65;13.15;;;20.60;33.80;;;;;;4996130;28;20490;-60
2022/03/03 10:25:33;;;;;;;14.40;12.30;;;20.90;34.80;;;;;;4998725;28;20034;-55
2022/03/03 10:28:20;;;;;;;15.60;14.20;;;21.10;35.60;;;;;;5003727;28;20069;-56
2022/03/03 10:30:51;;;;;;;13.98;12.57;;;20.80;34.80;;;;;;4999116;28;20031;-56
2022/03/03 10:33:19;;;;;;;13.85;12.55;;;20.60;35.00;;;;;;5000513;28;20122;-57
2022/03/03 10:36:12;;;;;;;15.85;14.35;;;20.30;35.70;;;;;;5000400;28;20120;-55
2022/03/03 10:38:50;;;;;;;14.57;13.18;;;20.00;36.80;;;;;;5000636;28;20023;-57
2022/03/03 10:41:40;;;;;;;14.77;13.50;;;20.00;36.80;;;;;;5002344;28;20633;-57
2022/03/03 10:44:10;;;;;;;13.80;12.30;;;19.50;37.20;;;;;;5001582;28;20519;-56
2022/03/03 10:46:56;;;;;;;17.87;15.23;;;19.90;36.20;;;;;;5001806;28;20033;-56
2022/03/03 10:49:25;;;;;;;15.32;13.73;;;20.20;35.20;;;;;;5001525;28;20022;-58
2022/03/03 10:51:51;;;;;;;15.30;13.70;;;20.10;33.90;;;;;;5004741;28;20556;-58
2022/03/03 10:54:18;;;;;;;13.82;12.40;;;19.60;35.00;;;;;;5005455;28;20121;-56
2022/03/03 10:56:46;;;;;;;13.10;11.70;;;19.40;34.70;;;;;;5001823;28;20100;-59
2022/03/03 10:59:20;;;;;;;13.15;11.75;;;19.30;35.30;;;;;;4999796;28;20034;-58
2022/03/03 11:01:46;;;;;;;15.40;13.43;;;19.20;35.00;;;;;;4998698;28;20129;-58
2022/03/03 11:04:17;;;;;;;12.80;11.50;;;19.10;35.50;;;;;;4996590;28;20117;-59
2022/03/03 11:06:43;;;;;;;13.60;12.30;;;19.00;35.20;;;;;;5003473;28;20041;-63
2022/03/03 11:09:09;;;;;;;16.13;12.77;;;18.50;34.20;;;;;;5002346;28;20022;-62
2022/03/03 11:11:36;;;;;;;14.55;12.98;;;18.30;35.50;;;;;;4998842;28;20367;-59
2022/03/03 11:14:01;;;;;;;13.52;12.20;;;17.90;36.40;;;;;;5002313;28;20047;-60
2022/03/03 11:16:27;;;;;;;14.80;13.52;;;17.50;34.80;;;;;;4998871;28;20041;-58
2022/03/03 11:18:54;;;;;;;14.40;12.80;;;17.10;36.50;;;;;;4999610;28;20118;-57
2022/03/03 11:21:23;;;;;;;13.60;12.25;;;17.00;36.30;;;;;;5002144;28;20393;-57
2022/03/03 11:24:00;;;;;;;14.38;12.95;;;16.90;38.50;;;;;;4999573;28;20482;-56
2022/03/03 11:26:34;;;;;;;14.80;12.25;;;16.90;37.00;;;;;;5001045;28;20037;-59
2022/03/03 11:29:12;;;;;;;17.15;12.55;;;17.60;41.70;;;;;;4999979;28;20060;-57
2022/03/03 11:31:40;;;;;;;13.75;12.48;;;18.40;36.50;;;;;;4997013;28;20034;-58
2022/03/03 11:34:39;;;;;;;13.57;11.93;;;18.20;37.00;;;;;;5004985;28;20030;-59
2022/03/03 11:37:21;;;;;;;16.90;15.25;;;18.80;35.90;;;;;;4997972;28;20030;-56
2022/03/03 11:40:01;;;;;;;14.32;13.07;;;18.50;35.40;;;;;;4997336;28;20128;-58
2022/03/03 11:42:46;;;;;;;13.95;11.73;;;18.10;33.70;;;;;;5003535;28;20022;-56
2022/03/03 11:45:17;;;;;;;13.27;11.98;;;18.20;35.10;;;;;;5000468;28;20029;-56
2022/03/03 11:47:45;;;;;;;14.05;12.75;;;17.80;35.20;;;;;;5002289;28;20034;-58
2022/03/03 11:50:16;;;;;;;15.10;12.93;;;17.60;35.70;;;;;;5000537;28;20095;-58
2022/03/03 11:52:57;;;;;;;14.90;13.38;;;17.50;34.80;;;;;;4999801;28;20485;-57
2022/03/03 11:55:26;;;;;;;12.82;11.68;;;17.50;35.40;;;;;;4999417;28;20064;-55
2022/03/03 11:58:16;;;;;;;13.20;11.98;;;17.20;35.50;;;;;;4999604;28;20397;-60
2022/03/03 12:00:45;;;;;;;12.73;11.43;;;17.00;35.90;;;;;;4966521;28;20049;-57
2022/03/03 12:03:13;;;;;;;12.88;11.25;;;17.00;34.30;;;;;;4965730;28;20031;-58
2022/03/03 12:05:44;;;;;;;13.50;11.90;;;17.00;36.30;;;;;;4964846;28;20018;-59
2022/03/03 12:08:15;;;;;;;12.45;11.15;;;17.20;36.60;;;;;;4967891;28;20027;-57
2022/03/03 12:11:13;;;;;;;13.95;11.48;;;17.40;37.90;;;;;;4966414;28;20023;-60
2022/03/03 12:13:39;;;;;;;12.32;11.20;;;17.50;35.20;;;;;;4986015;28;20022;-56
2022/03/03 12:16:23;;;;;;;12.52;11.32;;;17.40;35.00;;;;;;4985125;28;20656;-56
2022/03/03 12:18:56;;;;;;;12.15;10.90;;;17.30;35.60;;;;;;4985682;28;20042;-57
2022/03/03 12:21:37;;;;;;;14.20;10.60;;;17.60;35.70;;;;;;4983910;28;20042;-60
2022/03/03 12:24:15;;;;;;;12.60;8.63;;;17.60;33.90;;;;;;4985926;28;20117;-57
2022/03/03 12:29:49;;;;;;;10.05;9.07;;;17.10;32.50;;;;;;4986318;28;20026;-61
2022/03/03 12:32:35;;;;;;;11.77;10.68;;;16.80;34.90;;;;;;4982384;28;20023;-57
2022/03/03 12:35:06;;;;;;;11.32;10.23;;;16.20;35.80;;;;;;4966448;28;20047;-60
2022/03/03 12:37:32;;;;;;;11.50;10.40;;;15.70;38.00;;;;;;4984506;28;20034;-57